createdAt,value
2017-07-08T08:19:11.075Z,19.23
2017-07-08T08:22:05.372Z,11.70
2017-07-08T08:24:35.827Z,12.37
2017-07-08T08:27:06.657Z,11.77
2017-07-08T08:29:37.355Z,19.90
2017-07-08T08:32:07.240Z,22.93
2017-07-08T08:34:52.973Z,16.70
2017-07-08T08:37:43.205Z,15.33
2017-07-08T08:40:50.433Z,21.40
2017-07-08T08:43:25.624Z,14.40
2017-07-08T08:46:14.218Z,15.10
2017-07-08T08:48:55.389Z,11.80
2017-07-08T08:51:36.463Z,21.47
2017-07-08T08:54:23.653Z,15.37
2017-07-08T08:57:01.710Z,16.47
2017-07-08T08:59:44.318Z,11.07
2017-07-08T09:02:30.815Z,14.37
2017-07-08T09:05:17.721Z,17.83
2017-07-08T09:07:59.092Z,15.33
2017-07-08T09:10:44.333Z,17.53
2017-07-08T09:13:30.890Z,13.80
2017-07-08T09:16:07.534Z,14.13
2017-07-08T09:18:47.843Z,17.10
2017-07-08T09:21:35.767Z,37.23
2017-07-08T09:24:23.080Z,12.83
2017-07-08T09:27:09.119Z,13.50
2017-07-08T09:29:54.009Z,13.37
2017-07-08T09:32:37.480Z,12.47
2017-07-08T09:35:23.523Z,13.10
2017-07-08T09:38:06.653Z,12.53
2017-07-08T09:40:53.565Z,9.70
2017-07-08T09:43:23.344Z,12.30
2017-07-08T09:45:54.501Z,8.13
2017-07-08T09:48:24.331Z,11.90
2017-07-08T09:51:05.523Z,9.40
2017-07-08T09:53:51.411Z,11.70
2017-07-08T09:56:32.038Z,14.07
2017-07-08T09:59:22.527Z,18.60
2017-07-08T10:02:10.817Z,10.60
2017-07-08T10:04:57.637Z,9.93
2017-07-08T10:07:46.043Z,8.30
2017-07-08T10:10:16.880Z,8.20
2017-07-08T10:13:00.746Z,14.33
2017-07-08T10:15:43.336Z,9.20
2017-07-08T10:18:29.448Z,10.30
2017-07-08T10:21:12.558Z,7.60
2017-07-08T10:23:56.894Z,8.70
2017-07-08T10:26:36.736Z,8.87
2017-07-08T10:29:18.720Z,12.80
2017-07-08T10:32:04.352Z,7.73
2017-07-08T10:34:47.933Z,9.57
2017-07-08T10:37:34.222Z,10.97
2017-07-08T10:40:21.322Z,18.77
2017-07-08T10:43:04.250Z,11.60
2017-07-08T10:45:49.993Z,12.73
2017-07-08T10:48:32.073Z,9.27
2017-07-08T10:51:23.719Z,11.17
2017-07-08T10:54:08.713Z,13.33
2017-07-08T10:56:45.529Z,9.00
2017-07-08T10:59:35.240Z,8.57
2017-07-08T11:02:23.424Z,12.53
2017-07-08T11:05:07.970Z,8.33
2017-07-08T11:07:54.955Z,10.20
2017-07-08T11:10:38.655Z,9.63
2017-07-08T11:13:25.239Z,11.70
2017-07-08T11:16:06.964Z,11.40
2017-07-08T11:18:50.155Z,8.43
2017-07-08T11:21:35.105Z,12.13
2017-07-08T11:24:22.127Z,29.10
2017-07-08T11:27:02.808Z,30.47
2017-07-08T11:29:45.181Z,28.00
2017-07-08T11:32:32.745Z,43.93
2017-07-08T11:35:20.194Z,33.87
2017-07-08T11:38:06.581Z,40.40
2017-07-08T11:40:50.971Z,62.53
2017-07-08T11:43:38.024Z,72.87
2017-07-08T11:46:24.345Z,51.13
2017-07-08T11:49:12.106Z,37.23
2017-07-08T11:51:57.574Z,61.57
2017-07-08T11:54:40.375Z,42.47
2017-07-08T11:57:26.722Z,36.23
2017-07-08T12:00:12.071Z,44.23
2017-07-08T12:02:58.430Z,38.27
2017-07-08T12:05:43.655Z,39.67
2017-07-08T12:08:30.940Z,38.83
2017-07-08T12:11:14.526Z,31.37
2017-07-08T12:13:56.801Z,27.63
2017-07-08T12:16:40.980Z,41.10
2017-07-08T12:19:27.576Z,42.43
2017-07-08T12:22:09.761Z,41.70
2017-07-08T12:24:56.295Z,44.20
2017-07-08T12:27:41.810Z,34.37
2017-07-08T12:30:28.162Z,54.33
2017-07-08T12:33:14.803Z,38.70
2017-07-08T12:35:55.474Z,29.90
2017-07-08T12:38:39.054Z,27.23
2017-07-08T12:41:25.185Z,32.37
2017-07-08T12:44:12.069Z,32.13
2017-07-08T12:46:59.661Z,21.50
2017-07-08T12:49:47.313Z,19.03
2017-07-08T12:52:20.872Z,22.10
2017-07-08T12:55:06.750Z,23.70
2017-07-08T12:57:55.900Z,24.40
2017-07-08T13:00:41.448Z,35.07
2017-07-08T13:03:24.173Z,26.07
2017-07-08T13:06:02.204Z,21.67
2017-07-08T13:08:49.664Z,22.37
2017-07-08T13:11:30.555Z,17.27
2017-07-08T13:14:11.560Z,23.03
2017-07-08T13:16:56.742Z,18.80
2017-07-08T13:19:38.619Z,27.77
2017-07-08T13:22:23.654Z,20.80
2017-07-08T13:25:11.209Z,18.97
2017-07-08T13:27:57.224Z,27.27
2017-07-08T13:30:40.672Z,18.27
2017-07-08T13:33:25.634Z,19.27
2017-07-08T13:36:09.423Z,21.30
2017-07-08T13:38:54.633Z,21.57
2017-07-08T13:41:41.375Z,18.13
2017-07-08T13:44:27.211Z,21.97
2017-07-08T13:47:10.541Z,20.90
2017-07-08T13:49:51.727Z,12.73
2017-07-08T13:52:36.974Z,16.80
2017-07-08T13:55:22.302Z,14.40
2017-07-08T13:58:06.745Z,18.70
2017-07-08T14:00:51.794Z,17.17
2017-07-08T14:03:37.185Z,18.87
2017-07-08T14:06:20.245Z,17.77
2017-07-08T14:09:05.283Z,17.70
2017-07-08T14:11:49.528Z,17.50
2017-07-08T14:14:33.280Z,16.97
2017-07-08T14:17:14.718Z,13.30
2017-07-08T14:19:57.820Z,20.90
2017-07-08T14:22:43.143Z,14.30
2017-07-08T14:25:24.016Z,26.03
2017-07-08T14:28:09.603Z,14.37
2017-07-08T14:30:56.628Z,15.10
2017-07-08T14:33:41.493Z,18.00
2017-07-08T14:36:24.592Z,13.83
2017-07-08T14:39:07.278Z,9.93
2017-07-08T14:41:49.681Z,17.30
2017-07-08T14:44:30.665Z,11.27
2017-07-08T14:47:16.697Z,14.47
2017-07-08T14:50:01.785Z,10.10
2017-07-08T14:52:50.284Z,13.43
2017-07-08T14:55:36.350Z,17.77
2017-07-08T14:58:22.905Z,18.70
2017-07-08T15:01:07.829Z,13.70
2017-07-08T15:03:53.327Z,12.53
2017-07-08T15:06:39.522Z,19.03
2017-07-08T15:09:24.432Z,16.97
2017-07-08T15:12:09.835Z,10.03
2017-07-08T15:14:56.720Z,19.98
2017-07-08T15:17:38.848Z,11.67
2017-07-08T15:20:22.848Z,17.87
2017-07-08T15:23:09.356Z,19.43
2017-07-08T15:25:58.317Z,10.10
2017-07-08T15:28:45.090Z,20.80
2017-07-08T15:31:27.363Z,14.70
2017-07-08T15:34:14.354Z,15.53
2017-07-08T15:37:00.183Z,10.10
2017-07-08T15:39:47.706Z,12.07
2017-07-08T15:42:32.605Z,14.93
2017-07-08T15:45:26.406Z,8.80
2017-07-08T15:48:13.368Z,10.70
2017-07-08T15:50:59.078Z,11.97
2017-07-08T15:53:45.257Z,10.87
2017-07-08T15:56:30.019Z,12.20
2017-07-08T15:59:17.631Z,7.90
2017-07-08T16:02:02.026Z,13.70
2017-07-08T16:04:49.561Z,9.27
2017-07-08T16:07:35.134Z,10.87
2017-07-08T16:10:21.436Z,10.60
2017-07-08T16:13:02.313Z,9.90
2017-07-08T16:15:49.494Z,12.30
2017-07-08T16:18:19.789Z,11.40
2017-07-08T16:20:50.727Z,15.40
2017-07-08T16:23:35.469Z,22.67
2017-07-08T16:26:06.361Z,12.23
2017-07-08T16:28:36.266Z,9.60
2017-07-08T16:31:06.056Z,14.37
2017-07-08T16:33:53.103Z,21.30
2017-07-08T16:36:22.857Z,14.10
2017-07-08T16:38:53.762Z,9.90
2017-07-08T16:41:35.633Z,16.10
2017-07-08T16:44:05.491Z,9.53
2017-07-08T16:46:50.947Z,14.50
2017-07-08T16:49:35.391Z,12.83
2017-07-08T16:52:17.626Z,13.03
2017-07-08T16:55:00.100Z,15.43
2017-07-08T16:57:45.802Z,15.77
2017-07-08T17:00:33.762Z,13.07
2017-07-08T17:03:20.150Z,9.20
2017-07-08T17:06:06.875Z,21.40
2017-07-08T17:08:54.537Z,18.93
2017-07-08T17:11:38.824Z,15.63
2017-07-08T17:14:22.765Z,15.70
2017-07-08T17:17:08.578Z,17.97
2017-07-08T17:19:49.368Z,16.50
2017-07-08T17:22:35.120Z,13.20
2017-07-08T17:25:13.480Z,17.53
2017-07-08T17:28:00.413Z,14.50
2017-07-08T17:30:44.551Z,12.30
2017-07-08T17:33:31.479Z,20.57
2017-07-08T17:36:12.400Z,13.03
2017-07-08T17:38:57.148Z,16.73
2017-07-08T17:41:43.060Z,11.03
2017-07-08T17:44:30.310Z,10.80
2017-07-08T17:47:15.131Z,13.03
2017-07-08T17:50:02.731Z,22.13
2017-07-08T17:52:47.126Z,20.30
2017-07-08T17:55:33.769Z,18.10
2017-07-08T17:58:17.759Z,11.13
2017-07-08T18:01:04.667Z,8.97
2017-07-08T18:03:47.709Z,10.70
2017-07-08T18:06:34.213Z,18.60
2017-07-08T18:09:18.599Z,16.60
2017-07-08T18:12:05.640Z,13.77
2017-07-08T18:14:47.787Z,22.17
2017-07-08T18:17:34.373Z,11.80
2017-07-08T18:20:20.356Z,14.80
2017-07-08T18:23:06.852Z,26.20
2017-07-08T18:25:53.832Z,15.73
2017-07-08T18:28:36.530Z,16.80
2017-07-08T18:31:17.568Z,17.33
2017-07-08T18:33:48.244Z,15.90
2017-07-08T18:36:19.210Z,15.50
2017-07-08T18:39:01.819Z,14.87
2017-07-08T18:41:39.831Z,10.70
